Pagrindinis puslapis
METAR-TAF:

METAR-TAF

Oro uostai :

Foz do Iguasu, Parana, Brazilija

platuma: 25-31S, ilguma: 054-35W, Aukštis: 180 m

Dabartinis oras

Ataskaita buvo paskelbta 58 minutes, ne 03:00 UTC
Vėjas 4 kt iš Pietų/Pietvakarių
Temperatūra 20°C
Drėgmė 100%
Slėgis 1016 hPa
Matomumas 10 km arba daugiau
Išsisklaidę debesys ne aukštis 1000 ft

METAR: SBFI 070300Z 20004KT 9999 SCT010 20/20 Q1016

Laikas: 00:58 (03:58 UTC)

Prognozė

Ataskaita buvo paskelbta 6 valandos ir 58 minutes, ne 21:00 UTC
Prognozė galioja nuo 07 metu 00 UTC su 07 metu 24 UTC
Vėjas 7 kt iš Pietų
Matomumas 10 km arba daugiau
Su prošvaistėmis ne aukštis 2000 ft
Tikimybė 40%
nuo 07 metu 00 UTC su 07 metu 06 UTC
Matomumas: 4000 m
Su prošvaistėmis ne aukštis 600 ft
rūkana
Tapsmas
nuo 07 metu 12 UTC su 07 metu 14 UTC
Vėjas 10 kt iš Pietų
Matomumas 10 km arba daugiau
nėra debesų žemiau 1500 m ir nėra kamuolinių lietaus debesų

TAF: SBFI 062100Z 0700/0724 18007KT 9999 BKN020 TN16/0709Z TX26/0718Z PROB40 0700/0706 4000 BR BKN006 BECMG 0712/0714 18010KT CAVOK RMK PDJ

Orai ataskaitas ir orų prognozės (METAR, TAF).

turimą stotys yra geltonos ir raudonos taškus žemėlapyje.

Perkelti pele per norėdami pamatyti stoties vardą.

Tada spustelėkite, norėdami matyti oro stebėjimo ir prognozės.

Norėdami pakeisti žemėlapį: spustelėkite ant žalios mygtukų su juodo kryžiaus žemyn,; žalią mygtuką su brūkšneliu, jei norite nutolinti; arba žalių rodyklių gretimoms žemėlapius.


METAR-TAF: